Time;durP1;ratioP1;P1;durP2;ratioP2;P2;SDS_P1;SDS_P2;PMS_P1;PMS_P2;Temp;Humidity;BMP_temperature;BMP_pressure;BME280_temperature;BME280_humidity;BME280_pressure;Samples;Min_cycle;Max_cycle;Signal;HPM_P1;HPM_P2
2024/01/19 00:03:00;;;;;;;18.07;12.40;;;;;;;2.89;43.17;99379.81;10434985;28;20321;-69
2024/01/19 00:08:02;;;;;;;27.30;17.00;;;;;;;2.81;41.71;99417.53;10443403;28;20389;-71
2024/01/19 00:13:04;;;;;;;25.60;14.77;;;;;;;1.38;43.01;99671.13;10440304;28;20244;-71
2024/01/19 00:18:05;;;;;;;17.53;13.00;;;;;;;2.57;42.94;99425.06;10451358;28;20236;-71
2024/01/19 00:23:07;;;;;;;18.33;11.93;;;;;;;1.35;44.05;99676.66;10445138;28;20231;-72
2024/01/19 00:28:09;;;;;;;15.17;10.73;;;;;;;2.56;42.89;99442.75;10453580;28;20237;-71
2024/01/19 00:33:11;;;;;;;16.93;11.03;;;;;;;2.06;43.55;99456.06;10448703;28;20235;-71
2024/01/19 00:38:13;;;;;;;19.67;13.53;;;;;;;1.74;42.82;99625.97;10454078;28;20239;-71
2024/01/19 00:43:14;;;;;;;16.87;11.77;;;;;;;2.88;42.20;99396.66;10443531;28;20251;-71
2024/01/19 00:48:16;;;;;;;18.33;11.27;;;;;;;2.68;41.77;99547.28;10440742;28;20239;-70
2024/01/19 00:53:18;;;;;;;16.77;10.77;;;;;;;2.44;43.06;99473.75;10434588;28;20224;-71
2024/01/19 00:58:20;;;;;;;17.20;10.77;;;;;;;1.22;44.94;99712.88;10451421;28;20226;-71
2024/01/19 01:03:26;;;;;;;19.30;12.63;;;;;;;3.60;41.84;99394.28;10445817;28;20245;-71
2024/01/19 01:08:27;;;;;;;18.40;12.67;;;;;;;3.22;41.67;99517.78;10449772;28;20220;-70
2024/01/19 01:13:29;;;;;;;18.97;12.50;;;;;;;2.39;42.35;99596.63;10446756;28;20377;-70
2024/01/19 01:18:31;;;;;;;20.37;14.10;;;;;;;2.97;41.27;99564.97;10444478;28;20471;-70
2024/01/19 01:23:33;;;;;;;16.97;11.57;;;;;;;1.89;42.37;99782.97;10443382;28;20333;-70
2024/01/19 01:28:34;;;;;;;16.90;12.23;;;;;;;4.34;39.65;99472.69;10438881;28;20262;-69
2024/01/19 01:33:36;;;;;;;16.83;11.63;;;;;;;4.36;39.10;99559.94;10450060;28;20721;-68
2024/01/19 01:38:38;;;;;;;20.97;12.60;;;;;;;3.32;40.35;99742.59;10461082;28;20240;-69
2024/01/19 01:43:40;;;;;;;19.30;11.67;;;;;;;3.68;40.15;99632.53;10442079;28;20255;-69
2024/01/19 01:48:41;;;;;;;16.10;11.20;;;;;;;3.36;40.71;99686.63;10439754;28;20239;-70
2024/01/19 01:53:43;;;;;;;15.00;11.13;;;;;;;3.70;40.56;99648.25;10444146;28;20728;-70
2024/01/19 01:58:45;;;;;;;15.70;11.13;;;;;;;4.12;40.02;99594.88;10438402;28;20223;-69
2024/01/19 02:03:48;;;;;;;16.00;10.40;;;;;;;1.20;43.58;99938.84;10435216;28;20334;-69
2024/01/19 02:08:50;;;;;;;16.30;10.90;;;;;;;2.16;43.51;99492.09;10447063;28;20754;-71
2024/01/19 02:13:52;;;;;;;18.67;12.10;;;;;;;2.40;42.98;99553.38;10446787;28;20231;-68
2024/01/19 02:18:54;;;;;;;16.03;10.83;;;;;;;3.11;41.36;99600.75;10461229;28;20318;-70
2024/01/19 02:24:01;;;;;;;14.77;11.23;;;;;;;1.88;42.70;99820.09;10452190;28;20243;-70
2024/01/19 02:29:03;;;;;;;17.00;11.97;;;;;;;2.81;42.97;99556.78;10447726;28;20430;-71
2024/01/19 02:34:04;;;;;;;17.67;11.20;;;;;;;2.11;43.17;99773.28;10436278;28;20309;-68
2024/01/19 02:39:06;;;;;;;16.60;10.97;;;;;;;2.70;43.11;99589.44;10448426;28;20675;-70
2024/01/19 02:44:08;;;;;;;17.20;11.43;;;;;;;2.82;42.84;99664.13;10442307;28;20235;-69
2024/01/19 02:49:09;;;;;;;17.87;11.50;;;;;;;3.09;43.02;99555.94;10433552;28;20289;-69
2024/01/19 02:54:11;;;;;;;13.67;9.60;;;;;;;3.36;41.97;99676.03;10455454;28;20227;-72
2024/01/19 02:59:12;;;;;;;15.67;9.67;;;;;;;4.35;40.85;99527.31;10441516;28;20408;-70
2024/01/19 03:04:14;;;;;;;15.33;11.67;;;;;;;3.69;42.06;99561.94;10457447;28;20251;-70
2024/01/19 03:09:16;;;;;;;17.33;11.43;;;;;;;3.62;41.92;99618.06;10437875;28;20302;-70
2024/01/19 03:14:17;;;;;;;14.23;9.97;;;;;;;3.74;40.98;99744.94;10450987;28;20446;-70
2024/01/19 03:19:19;;;;;;;13.80;9.57;;;;;;;4.70;40.50;99589.28;10425325;28;20227;-70
2024/01/19 03:24:21;;;;;;;14.83;10.40;;;;;;;5.17;39.72;99590.03;10439182;28;20235;-69
2024/01/19 03:29:23;;;;;;;14.90;11.20;;;;;;;3.69;42.02;99733.94;10435728;28;20326;-69
2024/01/19 03:34:25;;;;;;;14.57;11.73;;;;;;;3.36;42.26;99781.00;10442915;28;20235;-70
2024/01/19 03:39:27;;;;;;;12.53;9.47;;;;;;;4.48;40.90;99618.88;10429146;28;20346;-67
2024/01/19 03:44:29;;;;;;;15.33;10.90;;;;;;;1.24;44.81;99987.78;10442536;28;20403;-69
2024/01/19 03:49:30;;;;;;;12.07;10.03;;;;;;;2.87;43.48;99697.13;10436051;28;20828;-69
2024/01/19 03:54:33;;;;;;;14.43;10.20;;;;;;;4.45;41.52;99609.38;10434081;28;20245;-68
2024/01/19 03:59:34;;;;;;;15.40;10.77;;;;;;;4.46;40.81;99685.25;10432611;28;20244;-70
2024/01/19 04:04:36;;;;;;;15.90;10.67;;;;;;;4.43;40.87;99690.03;10430807;28;20329;-69
2024/01/19 04:09:38;;;;;;;16.07;11.17;;;;;;;3.57;41.83;99847.88;10432886;28;20750;-69
2024/01/19 04:14:40;;;;;;;15.60;11.93;;;;;;;4.47;40.77;99646.34;10442742;28;20351;-69
2024/01/19 04:19:42;;;;;;;13.97;10.93;;;;;;;3.26;41.64;99929.94;10450689;28;20233;-70
2024/01/19 04:24:43;;;;;;;22.80;13.43;;;;;;;4.11;40.92;99715.06;10437501;28;20730;-73
2024/01/19 04:29:45;;;;;;;30.73;18.63;;;;;;;3.49;42.10;99733.13;10435814;28;20302;-72
2024/01/19 04:34:47;;;;;;;24.70;16.10;;;;;;;4.06;40.88;99720.78;10433412;28;20232;-72
2024/01/19 04:39:48;;;;;;;18.77;12.73;;;;;;;3.04;42.95;99686.88;10433173;28;20235;-72
2024/01/19 04:44:51;;;;;;;18.33;11.33;;;;;;;3.33;42.81;99707.19;10438175;28;20366;-72
2024/01/19 04:49:53;;;;;;;20.13;14.40;;;;;;;4.23;40.64;99689.22;10427236;28;20236;-71
2024/01/19 04:54:54;;;;;;;23.30;14.10;;;;;;;3.50;41.73;99809.72;10431147;28;20240;-72
2024/01/19 04:59:56;;;;;;;18.17;13.67;;;;;;;3.75;41.25;99751.91;10433588;28;20794;-71
2024/01/19 05:04:59;;;;;;;19.17;13.83;;;;;;;3.26;41.76;99818.88;10428025;28;20243;-72
2024/01/19 05:10:00;;;;;;;18.80;13.20;;;;;;;2.98;42.60;99756.16;10435373;28;20228;-71
2024/01/19 05:15:02;;;;;;;17.73;12.97;;;;;;;2.49;42.77;99895.97;10434285;28;20331;-72
2024/01/19 05:20:04;;;;;;;16.57;12.93;;;;;;;2.71;42.88;99768.97;10436459;28;20220;-73
2024/01/19 05:25:07;;;;;;;18.60;13.57;;;;;;;3.04;42.02;99801.41;10432439;28;20233;-72
2024/01/19 05:30:09;;;;;;;20.97;12.17;;;;;;;3.83;40.95;99771.41;10434525;28;20236;-71
2024/01/19 05:35:11;;;;;;;27.77;19.47;;;;;;;3.96;40.48;99727.91;10434956;28;20235;-71
2024/01/19 05:40:13;;;;;;;20.33;14.80;;;;;;;3.57;41.73;99673.22;10422535;28;20247;-71
2024/01/19 05:45:17;;;;;;;15.63;11.97;;;;;;;3.51;41.39;99760.25;10433865;28;20328;-72
2024/01/19 05:50:19;;;;;;;17.50;12.27;;;;;;;3.89;41.07;99689.75;10434382;28;20650;-72
2024/01/19 05:55:21;;;;;;;22.60;13.40;;;;;;;4.47;39.41;99742.56;10432707;28;20247;-71
2024/01/19 06:00:23;;;;;;;17.50;12.63;;;;;;;1.84;43.97;99716.56;10435264;28;20659;-71
2024/01/19 06:05:25;;;;;;;19.03;13.00;;;;;;;3.46;41.18;99744.81;10433713;28;20697;-74
2024/01/19 06:10:26;;;;;;;16.30;11.13;;;;;;;2.42;42.22;99873.69;10431113;28;20297;-72
2024/01/19 06:15:28;;;;;;;21.47;13.13;;;;;;;2.23;42.75;99921.91;10428750;28;20278;-72
2024/01/19 06:20:30;;;;;;;24.30;14.00;;;;;;;3.10;42.22;99707.47;10430838;28;20908;-72
2024/01/19 06:25:32;;;;;;;22.63;14.63;;;;;;;1.23;43.60;100058.09;10432025;28;20244;-72
2024/01/19 06:30:34;;;;;;;20.33;13.90;;;;;;;3.09;41.59;99756.03;10429497;28;20223;-72
2024/01/19 06:35:35;;;;;;;18.77;13.80;;;;;;;3.29;40.93;99846.84;10436430;28;20239;-71
2024/01/19 06:40:37;;;;;;;24.03;13.90;;;;;;;2.10;42.71;99927.38;10430467;28;20242;-72
2024/01/19 06:45:39;;;;;;;17.87;13.07;;;;;;;1.70;44.06;99847.00;10432525;28;20228;-71
2024/01/19 06:50:40;;;;;;;20.27;14.37;;;;;;;1.78;43.22;99902.63;10423847;28;20706;-71
2024/01/19 06:55:42;;;;;;;26.43;14.27;;;;;;;2.37;42.80;99789.56;10432600;28;20710;-71
2024/01/19 07:00:44;;;;;;;22.50;15.07;;;;;;;1.31;43.74;100064.59;10427347;28;20254;-74
2024/01/19 07:05:46;;;;;;;24.30;15.27;;;;;;;1.30;43.88;100028.63;10431612;28;20797;-73
2024/01/19 07:10:48;;;;;;;18.73;13.87;;;;;;;2.29;42.15;99977.69;10442238;28;20236;-74
2024/01/19 07:15:50;;;;;;;18.33;13.67;;;;;;;3.09;41.57;99828.28;10434361;28;20715;-73
2024/01/19 07:20:51;;;;;;;18.77;13.43;;;;;;;2.02;43.31;100004.53;10438807;28;20250;-73
2024/01/19 07:25:53;;;;;;;23.90;16.00;;;;;;;3.69;40.87;99822.13;10452723;28;20228;-73
2024/01/19 07:30:55;;;;;;;28.60;18.53;;;;;;;1.95;41.59;100228.53;10444353;28;20235;-74
2024/01/19 07:35:56;;;;;;;21.10;14.33;;;;;;;2.90;42.16;99888.97;10443749;28;20335;-74
2024/01/19 07:40:58;;;;;;;21.67;14.20;;;;;;;3.68;40.99;99856.66;10449166;28;20702;-73
2024/01/19 07:46:00;;;;;;;20.17;15.27;;;;;;;2.76;41.99;100006.44;10446058;28;20240;-73
2024/01/19 07:51:03;;;;;;;20.73;14.13;;;;;;;2.22;42.65;100068.13;10446889;28;20734;-72
2024/01/19 07:56:05;;;;;;;21.67;13.50;;;;;;;2.38;42.84;99973.44;10442111;28;20235;-75
2024/01/19 08:01:07;;;;;;;22.03;14.43;;;;;;;2.37;42.65;99985.00;10444950;28;20678;-74
2024/01/19 08:06:09;;;;;;;31.93;20.63;;;;;;;2.17;43.03;99965.50;10459154;28;20726;-74
2024/01/19 08:11:11;;;;;;;21.67;13.93;;;;;;;2.71;42.35;99884.44;10446763;28;20224;-74
2024/01/19 08:16:12;;;;;;;22.90;14.87;;;;;;;3.35;41.58;99853.41;10445863;28;20241;-74
2024/01/19 08:21:14;;;;;;;20.73;13.27;;;;;;;1.66;43.79;100083.03;10448243;28;20343;-74
2024/01/19 08:26:19;;;;;;;18.57;14.07;;;;;;;0.94;45.25;100083.19;10444164;28;20223;-74
2024/01/19 08:31:21;;;;;;;20.10;14.00;;;;;;;0.10;46.22;100210.25;10437156;28;20234;-74
2024/01/19 08:36:24;;;;;;;20.40;12.73;;;;;;;1.21;45.27;99940.56;10453301;28;20245;-74
2024/01/19 08:41:25;;;;;;;20.70;13.93;;;;;;;2.10;43.32;100015.31;10439170;28;20232;-74
2024/01/19 08:46:27;;;;;;;20.37;15.20;;;;;;;-0.23;45.21;100373.88;10457799;28;20231;-74
2024/01/19 08:51:29;;;;;;;21.17;14.33;;;;;;;2.48;43.21;99950.59;10459078;28;20236;-74
2024/01/19 08:56:31;;;;;;;23.27;15.20;;;;;;;2.15;43.84;99976.19;10456706;28;20294;-75
2024/01/19 09:01:34;;;;;;;27.87;18.23;;;;;;;1.45;44.58;100084.66;10434662;28;20900;-74
2024/01/19 09:06:36;;;;;;;19.77;14.03;;;;;;;1.58;45.06;99949.06;10492335;28;20239;-75
2024/01/19 09:11:40;;;;;;;17.27;12.73;;;;;;;2.47;43.79;99983.28;10488739;28;20255;-74
2024/01/19 09:16:43;;;;;;;20.30;14.70;;;;;;;3.84;41.50;100024.56;10498943;28;20318;-74
2024/01/19 09:21:44;;;;;;;20.60;14.50;;;;;;;3.57;41.50;100123.09;10487828;28;20227;-74
2024/01/19 09:26:46;;;;;;;24.43;16.67;;;;;;;2.39;43.18;100157.41;10495333;28;20325;-75
2024/01/19 09:31:48;;;;;;;27.33;18.50;;;;;;;3.47;43.09;99974.03;10492188;28;20239;-74
2024/01/19 09:36:50;;;;;;;24.07;15.67;;;;;;;2.92;42.80;100243.94;10495037;28;20239;-73
2024/01/19 09:42:02;;;;;;;20.90;14.57;;;;;;;4.10;41.70;100160.97;10480983;28;20305;-73
2024/01/19 09:47:17;;;;;;;22.43;15.70;;;;;;;4.54;41.13;100093.50;10486317;28;20239;-73
2024/01/19 09:52:27;;;;;;;20.60;16.40;;;;;;;3.84;42.05;100232.91;10482708;28;20236;-71
2024/01/19 09:57:31;;;;;;;24.13;17.73;;;;;;;4.21;41.93;100176.78;10488240;28;20242;-71
2024/01/19 10:02:33;;;;;;;20.43;14.73;;;;;;;4.97;40.92;100159.56;10477926;28;20251;-71
2024/01/19 10:07:35;;;;;;;19.93;15.50;;;;;;;4.62;41.17;100245.72;10494770;28;20600;-71
2024/01/19 10:12:38;;;;;;;23.07;16.20;;;;;;;5.01;41.09;100168.91;10481573;28;20282;-71
2024/01/19 10:17:40;;;;;;;20.97;15.07;;;;;;;4.16;41.80;100322.88;10486261;28;20265;-71
2024/01/19 10:22:43;;;;;;;22.67;16.13;;;;;;;5.39;40.80;100191.97;10488191;28;20396;-71
2024/01/19 10:27:46;;;;;;;22.10;14.57;;;;;;;5.67;40.60;100128.38;10492668;28;20238;-72
2024/01/19 10:32:50;;;;;;;21.17;15.17;;;;;;;5.45;40.54;100247.16;10476779;28;20232;-71
2024/01/19 10:37:52;;;;;;;24.43;15.43;;;;;;;5.87;40.01;100259.28;10486130;28;20230;-72
2024/01/19 10:42:56;;;;;;;24.03;17.03;;;;;;;5.32;40.93;100321.72;10478241;28;20231;-72
2024/01/19 10:48:00;;;;;;;20.57;14.93;;;;;;;5.83;39.71;100293.28;10475334;28;20319;-72
2024/01/19 10:53:11;;;;;;;21.80;14.63;;;;;;;4.73;42.20;100309.28;10482320;28;20229;-72
2024/01/19 10:58:13;;;;;;;23.07;16.23;;;;;;;6.06;39.83;100264.59;10483092;28;20232;-72
2024/01/19 11:06:21;;;;;;;19.63;15.03;;;;;;;2.36;46.91;100149.72;10351272;27;21435;-71
2024/01/19 11:11:26;;;;;;;23.30;16.07;;;;;;;3.04;45.83;100084.31;10361812;28;20234;-72
2024/01/19 11:16:36;;;;;;;19.83;15.10;;;;;;;3.79;44.54;100123.91;10386906;28;20252;-72
2024/01/19 11:21:40;;;;;;;18.63;13.80;;;;;;;3.98;44.33;100176.09;10373212;28;20835;-72
2024/01/19 11:26:47;;;;;;;19.27;14.07;;;;;;;4.02;43.80;100165.13;10376255;28;20263;-72
2024/01/19 11:31:50;;;;;;;16.30;13.30;;;;;;;2.34;45.70;100307.47;10380179;28;21007;-71
2024/01/19 11:36:51;;;;;;;17.90;13.13;;;;;;;3.34;44.49;100222.06;10379054;28;20239;-72
2024/01/19 11:41:53;;;;;;;19.87;15.77;;;;;;;3.30;44.53;100265.63;10376312;28;20669;-73
2024/01/19 11:46:55;;;;;;;18.27;13.87;;;;;;;4.03;43.91;100108.53;10382850;28;20296;-73
2024/01/19 11:51:57;;;;;;;24.83;15.10;;;;;;;2.91;45.39;100195.53;10373558;28;20729;-73
2024/01/19 11:57:22;;;;;;;20.07;14.37;;;;;;;1.72;45.69;100409.72;10376838;28;20630;-73
2024/01/19 12:02:31;;;;;;;21.80;14.33;;;;;;;3.09;45.51;100158.81;10371670;28;20455;-73
2024/01/19 12:07:33;;;;;;;19.57;15.00;;;;;;;3.69;44.32;100126.50;10380726;28;20242;-73
2024/01/19 12:12:35;;;;;;;18.37;13.60;;;;;;;3.31;45.15;100240.84;10372218;28;20243;-73
2024/01/19 12:17:40;;;;;;;21.37;14.20;;;;;;;4.31;43.58;100224.53;10351997;28;20545;-73
2024/01/19 12:22:44;;;;;;;20.70;14.17;;;;;;;3.67;44.52;100252.00;10347437;28;20243;-73
2024/01/19 12:27:48;;;;;;;18.47;14.40;;;;;;;3.28;45.31;100260.47;10347628;28;20253;-73
2024/01/19 12:32:49;;;;;;;18.90;13.63;;;;;;;3.34;45.15;100198.25;10353268;28;20288;-73
2024/01/19 12:37:52;;;;;;;18.77;13.60;;;;;;;3.92;44.41;100226.94;10346791;28;20321;-74
2024/01/19 12:42:53;;;;;;;21.93;15.07;;;;;;;4.32;43.86;100144.94;10343463;28;20603;-73
2024/01/19 12:47:55;;;;;;;13.77;11.07;;;;;;;4.18;43.45;100227.38;10346656;28;20615;-73
2024/01/19 12:52:57;;;;;;;18.70;12.40;;;;;;;2.92;45.19;100249.22;10346580;28;20233;-73
2024/01/19 12:57:59;;;;;;;16.67;11.20;;;;;;;4.12;43.49;100212.84;10349789;28;20264;-74
2024/01/19 13:03:03;;;;;;;15.80;10.57;;;;;;;2.76;44.59;100463.69;10349079;28;20235;-74
2024/01/19 13:08:09;;;;;;;13.77;10.83;;;;;;;4.85;43.13;100101.34;10356456;28;20306;-74
2024/01/19 13:13:21;;;;;;;15.27;11.33;;;;;;;4.27;43.51;100176.25;10343725;28;20330;-73
2024/01/19 13:18:23;;;;;;;14.33;11.00;;;;;;;2.01;46.13;100405.91;10353285;28;20312;-72
2024/01/19 13:23:24;;;;;;;18.07;12.27;;;;;;;2.36;46.21;100263.28;10349037;28;20239;-72
2024/01/19 13:28:26;;;;;;;13.00;9.90;;;;;;;1.87;46.47;100288.16;10348686;28;20243;-74
2024/01/19 13:33:28;;;;;;;18.37;11.43;;;;;;;1.75;46.35;100375.19;10340803;28;20240;-74
2024/01/19 13:38:30;;;;;;;16.30;12.17;;;;;;;3.86;43.18;100363.34;10355300;28;20522;-75
2024/01/19 13:43:31;;;;;;;14.47;11.27;;;;;;;4.90;42.49;100161.94;10342996;28;20656;-75
2024/01/19 13:48:33;;;;;;;16.73;12.10;;;;;;;4.11;43.53;100215.63;10343095;28;20248;-72
2024/01/19 13:53:35;;;;;;;14.30;10.57;;;;;;;2.07;46.20;100318.34;10342582;28;20332;-74
2024/01/19 13:58:37;;;;;;;17.83;12.23;;;;;;;3.04;44.83;100158.34;10351933;28;20292;-74
2024/01/19 14:03:39;;;;;;;15.10;11.57;;;;;;;2.65;45.02;100283.94;10346337;28;20246;-74
2024/01/19 14:08:45;;;;;;;19.87;12.53;;;;;;;2.43;44.88;100375.44;10347562;28;20267;-78
2024/01/19 14:13:48;;;;;;;14.97;10.57;;;;;;;5.55;41.35;100158.69;10334928;28;20271;-75
2024/01/19 14:18:49;;;;;;;16.97;10.50;;;;;;;3.13;45.23;100228.16;10335122;28;20288;-76
2024/01/19 14:23:51;;;;;;;18.17;11.93;;;;;;;4.97;43.01;100149.78;10348022;28;20261;-76
2024/01/19 14:28:53;;;;;;;16.53;12.67;;;;;;;4.52;42.17;100468.31;10352255;28;20246;-76
2024/01/19 14:33:55;;;;;;;15.17;11.67;;;;;;;4.32;43.81;100272.13;10340788;28;20325;-76
2024/01/19 14:38:58;;;;;;;18.07;13.30;;;;;;;2.85;45.12;100531.69;10351243;28;20721;-76
2024/01/19 14:44:00;;;;;;;16.53;12.30;;;;;;;4.33;42.92;100416.84;10347133;28;20353;-75
2024/01/19 14:49:04;;;;;;;15.50;11.20;;;;;;;4.89;42.85;100269.81;10355135;28;20244;-74
2024/01/19 14:54:10;;;;;;;18.67;13.80;;;;;;;6.03;40.73;100352.56;10350032;28;20328;-72
2024/01/19 14:59:13;;;;;;;17.70;12.33;;;;;;;5.77;41.25;100322.22;10351785;28;20800;-74
2024/01/19 15:04:14;;;;;;;15.03;11.27;;;;;;;5.77;40.36;100447.88;10342312;28;20238;-73
2024/01/19 15:09:16;;;;;;;16.50;9.77;;;;;;;3.12;45.36;100406.28;10350458;28;20698;-73
2024/01/19 15:14:18;;;;;;;16.43;11.63;;;;;;;5.38;41.75;100343.38;10344797;28;20265;-74
2024/01/19 15:19:20;;;;;;;17.73;12.83;;;;;;;5.49;41.38;100429.06;10347840;28;20238;-74
2024/01/19 15:24:22;;;;;;;15.03;11.53;;;;;;;4.67;41.82;100574.91;10336802;28;20270;-74
2024/01/19 15:29:23;;;;;;;12.83;10.20;;;;;;;3.51;43.47;100525.81;10341627;28;20239;-75
2024/01/19 15:34:25;;;;;;;15.17;10.97;;;;;;;3.76;42.33;100584.78;10345569;28;20258;-74
2024/01/19 15:39:28;;;;;;;14.73;10.97;;;;;;;5.56;40.69;100365.63;10342659;28;20225;-74
2024/01/19 15:44:30;;;;;;;16.87;11.00;;;;;;;5.42;41.29;100353.59;10342905;28;20239;-74
2024/01/19 15:49:38;;;;;;;16.50;10.80;;;;;;;5.04;40.55;100571.84;10346743;28;20754;-74
2024/01/19 15:54:41;;;;;;;17.97;11.70;;;;;;;3.98;43.11;100518.56;10349804;28;20248;-75
2024/01/19 15:59:45;;;;;;;14.87;10.20;;;;;;;3.33;43.34;100582.81;10359952;28;20721;-74
2024/01/19 16:04:47;;;;;;;15.57;11.60;;;;;;;4.39;42.22;100490.56;10349988;28;20243;-74
2024/01/19 16:09:49;;;;;;;10.93;7.93;;;;;;;4.21;41.10;100529.13;10349259;28;20238;-74
2024/01/19 16:14:52;;;;;;;13.93;10.30;;;;;;;4.65;41.71;100447.78;10353386;28;20271;-75
2024/01/19 16:19:53;;;;;;;13.10;9.43;;;;;;;3.87;41.95;100642.19;10351919;28;20730;-74
2024/01/19 16:24:55;;;;;;;11.00;8.90;;;;;;;4.02;41.74;100593.34;10358311;22;20266;-35
2024/01/19 16:29:57;;;;;;;11.87;9.50;;;;;;;5.73;40.21;100405.81;10360743;28;20241;-35
2024/01/19 16:34:59;;;;;;;14.07;10.60;;;;;;;4.53;41.43;100603.38;10353472;28;20250;-34
2024/01/19 16:40:01;;;;;;;10.00;8.10;;;;;;;5.42;40.22;100374.84;10361336;28;20715;-42
2024/01/19 16:45:03;;;;;;;11.80;8.53;;;;;;;5.41;40.26;100420.09;10354734;28;20251;-43
2024/01/19 16:50:08;;;;;;;13.37;9.57;;;;;;;5.73;39.80;100518.19;10354882;28;20239;-42
2024/01/19 16:55:10;;;;;;;12.93;9.57;;;;;;;6.57;38.41;100535.53;10353411;28;20230;-43
2024/01/19 17:00:12;;;;;;;18.70;12.80;;;;;;;6.35;39.03;100550.78;10358232;28;20239;-43
2024/01/19 17:05:16;;;;;;;13.03;8.33;;;;;;;4.65;40.68;100723.50;10353271;28;20240;-38
2024/01/19 17:10:18;;;;;;;12.63;9.67;;;;;;;3.02;43.26;100747.28;10359271;28;20236;-40
2024/01/19 17:15:23;;;;;;;14.83;9.37;;;;;;;4.26;41.18;100443.97;10352689;28;20250;-42
2024/01/19 17:20:27;;;;;;;10.00;6.50;;;;;;;4.46;40.13;100475.00;10358130;28;20237;-40
2024/01/19 17:25:29;;;;;;;9.70;7.00;;;;;;;5.56;38.33;100609.06;10349139;28;20594;-43
2024/01/19 17:30:32;;;;;;;10.40;8.20;;;;;;;3.58;41.42;100650.59;10357038;28;20235;-43
2024/01/19 17:35:34;;;;;;;14.00;8.43;;;;;;;5.07;39.40;100487.53;10352541;28;20239;-41
2024/01/19 17:40:36;;;;;;;18.03;10.40;;;;;;;4.85;39.42;100519.50;10361147;28;20745;-42
2024/01/19 17:45:38;;;;;;;13.30;10.03;;;;;;;3.63;40.51;100760.47;10354194;28;20237;-42
2024/01/19 17:50:40;;;;;;;14.13;10.00;;;;;;;3.05;42.24;100635.16;10357125;28;20234;-44
2024/01/19 17:55:42;;;;;;;13.00;9.77;;;;;;;4.62;39.50;100540.81;10354394;28;21485;-43
2024/01/19 18:00:47;;;;;;;11.73;9.10;;;;;;;3.17;41.08;100721.53;10356620;28;20233;-42
2024/01/19 18:05:51;;;;;;;13.40;8.83;;;;;;;3.48;40.80;100637.22;10353675;28;20312;-40
2024/01/19 18:10:53;;;;;;;12.80;9.80;;;;;;;4.71;39.01;100667.34;10355767;28;20285;-43
2024/01/19 18:15:54;;;;;;;15.10;10.97;;;;;;;5.91;38.09;100538.78;10355650;28;20311;-43
2024/01/19 18:20:57;;;;;;;14.83;11.33;;;;;;;3.70;40.31;100738.81;10348139;28;20235;-43
2024/01/19 18:25:58;;;;;;;13.90;9.53;;;;;;;3.83;40.30;100649.53;10353985;28;20243;-43
2024/01/19 18:31:01;;;;;;;15.57;10.17;;;;;;;4.03;40.03;100663.88;10352906;28;20280;-38
2024/01/19 18:36:03;;;;;;;12.07;9.27;;;;;;;4.32;39.25;100681.97;10350153;28;20540;-43
2024/01/19 18:41:05;;;;;;;40.40;24.90;;;;;;;3.23;41.23;100694.63;10358348;28;20258;-43
2024/01/19 18:46:07;;;;;;;19.23;12.63;;;;;;;2.41;42.46;100764.84;10351931;28;20240;-43
2024/01/19 18:51:09;;;;;;;16.47;12.67;;;;;;;5.35;38.58;100498.41;10357561;28;20241;-37
2024/01/19 18:56:11;;;;;;;12.17;10.07;;;;;;;3.92;39.66;100759.19;10353744;28;20372;-43
2024/01/19 19:01:16;;;;;;;15.53;12.07;;;;;;;2.47;41.69;100812.84;10350682;28;20238;-38
2024/01/19 19:06:21;;;;;;;15.40;11.50;;;;;;;4.60;39.21;100499.50;10353891;28;20703;-43
2024/01/19 19:11:24;;;;;;;16.30;12.23;;;;;;;3.23;40.24;100779.28;10355023;28;20257;-37
2024/01/19 19:16:27;;;;;;;16.47;11.53;;;;;;;3.31;40.51;100677.34;10350887;28;20283;-38
2024/01/19 19:21:46;;;;;;;19.93;15.80;;;;;;;4.15;39.17;100685.91;10352419;28;20240;-42
2024/01/19 19:26:47;;;;;;;24.57;16.17;;;;;;;2.99;40.88;100726.38;10361660;28;20287;-39
2024/01/19 19:31:50;;;;;;;19.10;13.60;;;;;;;4.83;38.54;100582.44;10360776;28;20929;-39
2024/01/19 19:36:55;;;;;;;18.53;12.53;;;;;;;2.70;40.79;100794.50;10363985;28;20334;-43
2024/01/19 19:41:57;;;;;;;17.30;13.17;;;;;;;3.87;39.73;100669.53;10357317;28;20230;-41
2024/01/19 19:46:58;;;;;;;17.03;11.77;;;;;;;2.54;41.00;100773.63;10365424;28;20234;-42
2024/01/19 19:52:00;;;;;;;17.97;12.73;;;;;;;3.84;38.82;100762.44;10357949;28;20274;-36
2024/01/19 19:57:03;;;;;;;17.47;12.70;;;;;;;2.96;39.91;100702.81;10360241;28;20235;-40
2024/01/19 20:02:07;;;;;;;15.47;12.00;;;;;;;2.01;40.76;100847.63;10359613;28;20722;-42
2024/01/19 20:07:08;;;;;;;14.73;12.17;;;;;;;3.11;39.81;100600.34;10361780;28;20241;-43
2024/01/19 20:12:10;;;;;;;18.47;14.17;;;;;;;1.49;40.86;100888.00;10359531;28;20221;-43
2024/01/19 20:17:12;;;;;;;19.37;11.90;;;;;;;2.17;41.61;100671.38;10362687;28;20572;-44
2024/01/19 20:22:14;;;;;;;13.47;11.47;;;;;;;2.84;40.71;100634.94;10359105;28;20242;-43
2024/01/19 20:27:16;;;;;;;14.53;11.20;;;;;;;3.89;39.03;100711.78;10360415;28;20241;-42
2024/01/19 20:32:19;;;;;;;13.20;10.57;;;;;;;3.21;40.16;100658.66;10357511;28;20214;-41
2024/01/19 20:37:21;;;;;;;12.37;9.67;;;;;;;4.13;38.52;100704.56;10359033;28;20233;-40
2024/01/19 20:42:23;;;;;;;16.17;12.00;;;;;;;2.30;40.97;100789.38;10355929;28;20681;-39
2024/01/19 20:47:24;;;;;;;15.77;11.63;;;;;;;3.00;40.85;100598.47;10363542;28;20746;-39
2024/01/19 20:52:26;;;;;;;15.43;11.07;;;;;;;3.44;39.97;100649.81;10352043;28;20255;-41
2024/01/19 20:57:28;;;;;;;15.03;11.23;;;;;;;2.43;40.91;100823.72;10353641;28;20237;-41
2024/01/19 21:02:33;;;;;;;14.17;11.17;;;;;;;3.99;39.11;100636.78;10359207;28;20275;-39
2024/01/19 21:07:35;;;;;;;13.03;9.57;;;;;;;3.57;39.19;100699.19;10362571;28;20695;-38
2024/01/19 21:12:37;;;;;;;15.00;9.80;;;;;;;2.92;39.95;100815.00;10360487;28;20355;-40
2024/01/19 21:17:43;;;;;;;14.43;10.03;;;;;;;2.77;40.57;100789.63;10358444;28;20273;-41
2024/01/19 21:22:45;;;;;;;21.63;15.87;;;;;;;3.01;39.16;100780.00;10355341;28;20321;-40
2024/01/19 21:27:47;;;;;;;22.47;16.30;;;;;;;2.28;39.58;100916.28;10356439;28;20260;-39
2024/01/19 21:32:49;;;;;;;23.07;16.67;;;;;;;2.75;39.06;100815.34;10345910;28;20706;-43
2024/01/19 21:37:51;;;;;;;27.77;18.00;;;;;;;2.46;39.20;100884.28;10359547;28;20257;-43
2024/01/19 21:42:53;;;;;;;37.17;23.60;;;;;;;2.70;39.34;100802.44;10350197;28;20230;-42
2024/01/19 21:47:55;;;;;;;33.87;19.70;;;;;;;2.42;39.99;100867.78;10356442;28;20236;-40
2024/01/19 21:52:57;;;;;;;26.80;16.93;;;;;;;0.78;41.78;100890.59;10347792;28;20265;-43
2024/01/19 21:57:59;;;;;;;25.83;16.30;;;;;;;2.84;39.58;100653.44;10355458;28;20240;-41
2024/01/19 22:03:01;;;;;;;17.27;11.07;;;;;;;2.53;40.54;100714.66;10353297;28;20587;-43
2024/01/19 22:08:04;;;;;;;17.30;11.17;;;;;;;3.28;39.67;100679.25;10355375;28;20230;-40
2024/01/19 22:13:07;;;;;;;15.00;11.83;;;;;;;2.40;40.11;100816.88;10347549;28;20525;-43
2024/01/19 22:18:08;;;;;;;18.33;11.50;;;;;;;1.25;42.03;100959.78;10354216;28;20303;-39
2024/01/19 22:23:10;;;;;;;17.27;12.47;;;;;;;2.51;39.87;100809.00;10354267;28;20287;-40
2024/01/19 22:28:12;;;;;;;18.10;10.87;;;;;;;1.85;41.37;100889.22;10355957;28;20247;-41
2024/01/19 22:33:14;;;;;;;57.10;16.47;;;;;;;2.49;41.51;100694.66;10352052;28;20235;-42
2024/01/19 22:38:16;;;;;;;57.77;18.10;;;;;;;2.43;40.45;100745.28;10348032;22;20245;-69
2024/01/19 22:43:18;;;;;;;54.90;17.57;;;;;;;2.47;39.90;100796.16;10301127;28;20228;-68
2024/01/19 22:48:20;;;;;;;88.13;19.50;;;;;;;2.10;40.06;100827.72;10283836;28;20320;-71
2024/01/19 22:53:21;;;;;;;93.47;15.63;;;;;;;1.52;41.49;100856.16;10262653;28;20470;-73
2024/01/19 22:58:23;;;;;;;23.73;15.17;;;;;;;1.22;41.52;100934.47;10240750;28;20288;-74
2024/01/19 23:03:25;;;;;;;142.57;16.30;;;;;;;0.30;42.76;100995.28;10261289;28;20229;-74